createdAt,value
2017-09-07T00:00:55.254Z,1013.15
2017-09-07T00:02:04.207Z,1013.09
2017-09-07T00:03:13.473Z,1013.08
2017-09-07T00:04:22.442Z,1013.04
2017-09-07T00:05:31.714Z,1013.06
2017-09-07T00:06:40.732Z,1013.06
2017-09-07T00:07:50.020Z,1013.04
2017-09-07T00:08:58.684Z,1013.07
2017-09-07T00:10:07.647Z,1013.05
2017-09-07T00:11:17.241Z,1013.05
2017-09-07T00:12:26.506Z,1013.05
2017-09-07T00:13:35.176Z,1013.06
2017-09-07T00:14:44.461Z,1013.04
2017-09-07T00:15:54.066Z,1013.09
2017-09-07T00:17:02.744Z,1013.06
2017-09-07T00:18:11.390Z,1013.1
2017-09-07T00:19:20.677Z,1013.09
2017-09-07T00:20:29.314Z,1013.05
2017-09-07T00:21:38.276Z,1013.04
2017-09-07T00:22:47.239Z,1013.05
2017-09-07T00:23:56.824Z,1013.03
2017-09-07T00:25:05.787Z,1013.01
2017-09-07T00:26:15.371Z,1012.98
2017-09-07T00:27:24.009Z,1012.99
2017-09-07T00:28:32.974Z,1012.96
2017-09-07T00:29:41.929Z,1012.95
2017-09-07T00:30:50.570Z,1012.92
2017-09-07T00:31:59.563Z,1012.93
2017-09-07T00:33:08.843Z,1012.91
2017-09-07T00:34:18.130Z,1012.91
2017-09-07T00:35:27.096Z,1012.91
2017-09-07T00:36:36.375Z,1012.88
2017-09-07T00:37:45.979Z,1012.85
2017-09-07T00:38:54.946Z,1012.88
2017-09-07T00:40:03.912Z,1012.88
2017-09-07T00:41:12.561Z,1012.87
2017-09-07T00:42:21.823Z,1012.83
2017-09-07T00:43:31.101Z,1012.85
2017-09-07T00:44:39.740Z,1012.84
2017-09-07T00:45:48.392Z,1012.86
2017-09-07T00:46:57.353Z,1012.85
2017-09-07T00:48:06.311Z,1012.86
2017-09-07T00:49:15.272Z,1012.86
2017-09-07T00:50:24.540Z,1012.86
2017-09-07T00:51:33.193Z,1012.87
2017-09-07T00:52:42.156Z,1012.85
2017-09-07T00:53:51.127Z,1012.85
2017-09-07T00:55:00.084Z,1012.85
2017-09-07T00:56:08.737Z,1012.78
2017-09-07T00:57:17.377Z,1012.75
2017-09-07T00:58:26.334Z,1012.77
2017-09-07T00:59:34.973Z,1012.79
2017-09-07T01:00:43.930Z,1012.81
2017-09-07T01:01:52.879Z,1012.78
2017-09-07T01:03:01.839Z,1012.79
2017-09-07T01:04:10.501Z,1012.77
2017-09-07T01:05:19.485Z,1012.75
2017-09-07T01:06:28.771Z,1012.73
2017-09-07T01:07:38.373Z,1012.73
2017-09-07T01:08:47.012Z,1012.69
2017-09-07T01:09:55.663Z,1012.72
2017-09-07T01:11:04.311Z,1012.69
2017-09-07T01:12:13.908Z,1012.7
2017-09-07T01:13:23.188Z,1012.72
2017-09-07T01:14:32.152Z,1012.71
2017-09-07T01:15:41.750Z,1012.69
2017-09-07T01:16:51.973Z,1012.69
2017-09-07T01:18:00.941Z,1012.69
2017-09-07T01:19:09.906Z,1012.67
2017-09-07T01:20:18.874Z,1012.67
2017-09-07T01:21:28.173Z,1012.65
2017-09-07T01:22:37.128Z,1012.65
2017-09-07T01:23:46.106Z,1012.59
2017-09-07T01:24:55.072Z,1012.63
2017-09-07T01:26:04.675Z,1012.57
2017-09-07T01:27:13.626Z,1012.55
2017-09-07T01:28:23.237Z,1012.54
2017-09-07T01:29:32.509Z,1012.54
2017-09-07T01:30:41.492Z,1012.51
2017-09-07T01:31:50.759Z,1012.53
2017-09-07T01:33:00.031Z,1012.52
2017-09-07T01:34:08.686Z,1012.53
2017-09-07T01:35:17.345Z,1012.5
2017-09-07T01:36:26.632Z,1012.51
2017-09-07T01:37:35.916Z,1012.44
2017-09-07T01:38:45.189Z,1012.47
2017-09-07T01:39:54.154Z,1012.46
2017-09-07T01:41:03.129Z,1012.44
2017-09-07T01:42:12.092Z,1012.44
2017-09-07T01:43:21.052Z,1012.45
2017-09-07T01:44:29.850Z,1012.47
2017-09-07T01:45:39.447Z,1012.47
2017-09-07T01:46:48.397Z,1012.48
2017-09-07T01:47:57.034Z,1012.47
2017-09-07T01:49:06.987Z,1012.47
2017-09-07T01:50:15.641Z,1012.49
2017-09-07T01:51:24.911Z,1012.49
2017-09-07T01:52:34.504Z,1012.49
2017-09-07T01:53:43.777Z,1012.46
2017-09-07T01:54:52.741Z,1012.45
2017-09-07T01:56:01.710Z,1012.46
2017-09-07T01:57:10.979Z,1012.45
2017-09-07T01:58:19.949Z,1012.46
2017-09-07T01:59:29.227Z,1012.51
2017-09-07T02:00:38.830Z,1012.5
2017-09-07T02:01:48.130Z,1012.47
2017-09-07T02:02:57.092Z,1012.52
2017-09-07T02:04:06.678Z,1012.48
2017-09-07T02:05:15.960Z,1012.48
2017-09-07T02:06:24.924Z,1012.48
2017-09-07T02:07:33.577Z,1012.48
2017-09-07T02:08:42.841Z,1012.47
2017-09-07T02:09:51.483Z,1012.47
2017-09-07T02:11:00.453Z,1012.47
2017-09-07T02:12:09.425Z,1012.47
2017-09-07T02:13:18.383Z,1012.47
2017-09-07T02:14:27.971Z,1012.48
2017-09-07T02:15:36.612Z,1012.49
2017-09-07T02:16:45.579Z,1012.45
2017-09-07T02:17:54.906Z,1012.46
2017-09-07T02:19:04.198Z,1012.41
2017-09-07T02:20:12.837Z,1012.41
2017-09-07T02:21:21.789Z,1012.42
2017-09-07T02:22:30.747Z,1012.42
2017-09-07T02:23:40.012Z,1012.42
2017-09-07T02:24:48.981Z,1012.42
2017-09-07T02:25:57.960Z,1012.4
2017-09-07T02:27:07.235Z,1012.4
2017-09-07T02:28:16.198Z,1012.39
2017-09-07T02:29:24.837Z,1012.4
2017-09-07T02:30:34.133Z,1012.33
2017-09-07T02:31:43.100Z,1012.37
2017-09-07T02:32:52.086Z,1012.34
2017-09-07T02:34:01.036Z,1012.34
2017-09-07T02:35:10.305Z,1012.35
2017-09-07T02:36:19.934Z,1012.35
2017-09-07T02:37:28.593Z,1012.34
2017-09-07T02:38:37.859Z,1012.35
2017-09-07T02:39:46.522Z,1012.36
2017-09-07T02:40:55.475Z,1012.38
2017-09-07T02:42:04.142Z,1012.35
2017-09-07T02:43:13.103Z,1012.35
2017-09-07T02:44:22.691Z,1012.33
2017-09-07T02:45:32.274Z,1012.35
2017-09-07T02:46:40.926Z,1012.36
2017-09-07T02:47:50.210Z,1012.33
2017-09-07T02:48:59.477Z,1012.33
2017-09-07T02:50:08.477Z,1012.36
2017-09-07T02:51:17.390Z,1012.37
2017-09-07T02:52:26.041Z,1012.31
2017-09-07T02:53:35.006Z,1012.31
2017-09-07T02:54:44.609Z,1012.25
2017-09-07T02:55:53.891Z,1012.28
2017-09-07T02:57:02.544Z,1012.27
2017-09-07T02:58:11.818Z,1012.26
2017-09-07T02:59:21.102Z,1012.28
2017-09-07T03:00:30.711Z,1012.25
2017-09-07T03:01:39.985Z,1012.26
2017-09-07T03:02:48.940Z,1012.26
2017-09-07T03:03:57.587Z,1012.26
2017-09-07T03:05:06.241Z,1012.26
2017-09-07T03:06:15.266Z,1012.26
2017-09-07T03:07:24.220Z,1012.28
2017-09-07T03:08:32.865Z,1012.25
2017-09-07T03:09:42.473Z,1012.26
2017-09-07T03:10:51.439Z,1012.29
2017-09-07T03:12:00.399Z,1012.29
2017-09-07T03:13:09.675Z,1012.28
2017-09-07T03:14:18.635Z,1012.22
2017-09-07T03:15:28.281Z,1012.19
2017-09-07T03:16:37.567Z,1012.21
2017-09-07T03:17:46.852Z,1012.17
2017-09-07T03:18:56.138Z,1012.17
2017-09-07T03:20:05.106Z,1012.14
2017-09-07T03:21:13.744Z,1012.14
2017-09-07T03:22:22.703Z,1012.13
2017-09-07T03:23:31.731Z,1012.11
2017-09-07T03:24:40.714Z,1012.09
2017-09-07T03:25:49.990Z,1012.08
2017-09-07T03:26:59.002Z,1012.12
2017-09-07T03:28:07.644Z,1012.1
2017-09-07T03:29:16.283Z,1012.11
2017-09-07T03:30:25.269Z,1012.07
2017-09-07T03:31:34.231Z,1012.11
2017-09-07T03:32:43.497Z,1012.09
2017-09-07T03:33:52.774Z,1012.06
2017-09-07T03:35:01.738Z,1012.06
2017-09-07T03:36:10.395Z,1012.08
2017-09-07T03:37:19.350Z,1012.11
2017-09-07T03:38:28.618Z,1012.11
2017-09-07T03:39:37.890Z,1012.08
2017-09-07T03:40:46.860Z,1012.09
2017-09-07T03:41:55.501Z,1012.12
2017-09-07T03:43:04.156Z,1012.13
2017-09-07T03:44:13.172Z,1012.13
2017-09-07T03:45:22.448Z,1012.14
2017-09-07T03:46:31.722Z,1012.11
2017-09-07T03:47:40.685Z,1012.13
2017-09-07T03:48:49.964Z,1012.12
2017-09-07T03:49:59.236Z,1012.09
2017-09-07T03:51:08.524Z,1012.07
2017-09-07T03:52:18.120Z,1012.1
2017-09-07T03:53:26.765Z,1012.08
2017-09-07T03:54:35.728Z,1012.1
2017-09-07T03:55:44.688Z,1012.07
2017-09-07T03:56:53.646Z,1012.06
2017-09-07T03:58:02.919Z,1012.1
2017-09-07T03:59:11.578Z,1012.09
2017-09-07T04:00:20.854Z,1012.08
2017-09-07T04:01:29.819Z,1012.11
2017-09-07T04:02:39.711Z,1012.09
2017-09-07T04:03:48.983Z,1012.09
2017-09-07T04:04:57.948Z,1012.06
2017-09-07T04:06:06.904Z,1012.1
2017-09-07T04:07:15.547Z,1012.06
2017-09-07T04:08:24.823Z,1012.05
2017-09-07T04:09:33.775Z,1012.05
2017-09-07T04:10:43.050Z,1012.03
2017-09-07T04:11:52.314Z,1012.01
2017-09-07T04:13:01.589Z,1012.02
2017-09-07T04:14:10.555Z,1012.01
2017-09-07T04:15:20.471Z,1011.99
2017-09-07T04:16:29.434Z,1012.01
2017-09-07T04:17:38.077Z,1012.04
2017-09-07T04:18:46.728Z,1012.02
2017-09-07T04:19:55.678Z,1011.96
2017-09-07T04:21:04.631Z,1012.02
2017-09-07T04:22:13.916Z,1012.02
2017-09-07T04:23:23.181Z,1012.03
2017-09-07T04:24:31.829Z,1012.01
2017-09-07T04:25:40.791Z,1012.01
2017-09-07T04:26:49.764Z,1012.06
2017-09-07T04:27:58.723Z,1012.04
2017-09-07T04:29:07.675Z,1012.02
2017-09-07T04:30:16.319Z,1012.1
2017-09-07T04:31:24.963Z,1012.04
2017-09-07T04:32:33.595Z,1012.04
2017-09-07T04:33:42.249Z,1012
2017-09-07T04:34:51.531Z,1011.99
2017-09-07T04:36:00.802Z,1012
2017-09-07T04:37:10.068Z,1012.01
2017-09-07T04:38:19.023Z,1012.03
2017-09-07T04:39:27.668Z,1012.08
2017-09-07T04:40:37.253Z,1012.05
2017-09-07T04:41:46.522Z,1012.04
2017-09-07T04:42:55.168Z,1012.04
2017-09-07T04:44:04.434Z,1012.03
2017-09-07T04:45:13.392Z,1012.03
2017-09-07T04:46:22.671Z,1012.05
2017-09-07T04:47:31.941Z,1012.05
2017-09-07T04:48:40.590Z,1012.04
2017-09-07T04:49:49.856Z,1012.04
2017-09-07T04:50:59.448Z,1012.07
2017-09-07T04:52:08.716Z,1012.05
2017-09-07T04:53:17.985Z,1012.07
2017-09-07T04:54:27.261Z,1012.05
2017-09-07T04:55:36.881Z,1012.05
2017-09-07T04:56:46.481Z,1012.05
2017-09-07T04:57:55.455Z,1012.11
2017-09-07T04:59:04.732Z,1012.1
2017-09-07T05:00:13.377Z,1012.09
2017-09-07T05:01:22.333Z,1012.08
2017-09-07T05:02:31.608Z,1012.06
2017-09-07T05:03:40.892Z,1012.09
2017-09-07T05:04:50.174Z,1012.11
2017-09-07T05:05:59.133Z,1012.04
2017-09-07T05:07:08.098Z,1012.09
2017-09-07T05:08:17.065Z,1012.08
2017-09-07T05:09:26.660Z,1012.08
2017-09-07T05:10:35.934Z,1012.02
2017-09-07T05:11:44.575Z,1012.06
2017-09-07T05:12:53.852Z,1012.07
2017-09-07T05:14:02.814Z,1012.09
2017-09-07T05:15:12.403Z,1012.1
2017-09-07T05:16:21.371Z,1012.09
2017-09-07T05:17:30.641Z,1012.07
2017-09-07T05:18:39.293Z,1012.1
2017-09-07T05:19:48.581Z,1012.09
2017-09-07T05:20:57.539Z,1012.1
2017-09-07T05:22:06.824Z,1012.12
2017-09-07T05:23:15.786Z,1012.12
2017-09-07T05:24:24.433Z,1012.13
2017-09-07T05:25:33.392Z,1012.13
2017-09-07T05:26:42.665Z,1012.15
2017-09-07T05:27:52.257Z,1012.12
2017-09-07T05:29:01.212Z,1012.17
2017-09-07T05:30:10.499Z,1012.14
2017-09-07T05:31:19.455Z,1012.17
2017-09-07T05:32:28.096Z,1012.18
2017-09-07T05:33:37.059Z,1012.19
2017-09-07T05:34:45.704Z,1012.21
2017-09-07T05:35:55.607Z,1012.2
2017-09-07T05:37:04.582Z,1012.17
2017-09-07T05:38:13.543Z,1012.15
2017-09-07T05:39:22.817Z,1012.18
2017-09-07T05:40:31.777Z,1012.21
2017-09-07T05:41:41.074Z,1012.17
2017-09-07T05:42:50.348Z,1012.22
2017-09-07T05:43:59.622Z,1012.19
2017-09-07T05:45:09.215Z,1012.2
2017-09-07T05:46:18.508Z,1012.2
2017-09-07T05:47:27.476Z,1012.17
2017-09-07T05:48:37.086Z,1012.21
2017-09-07T05:49:46.059Z,1012.16
2017-09-07T05:50:55.012Z,1012.18
2017-09-07T05:52:03.658Z,1012.15
2017-09-07T05:53:12.303Z,1012.2
2017-09-07T05:54:21.592Z,1012.2
2017-09-07T05:55:30.868Z,1012.21
2017-09-07T05:56:39.834Z,1012.21
2017-09-07T05:57:48.484Z,1012.23
2017-09-07T05:58:57.769Z,1012.22
2017-09-07T06:00:06.434Z,1012.2
2017-09-07T06:01:15.395Z,1012.18
2017-09-07T06:02:25.358Z,1012.2
2017-09-07T06:03:34.651Z,1012.19
2017-09-07T06:04:43.618Z,1012.19
2017-09-07T06:05:52.284Z,1012.21
2017-09-07T06:07:00.957Z,1012.19
2017-09-07T06:08:10.248Z,1012.24
2017-09-07T06:09:19.517Z,1012.24
2017-09-07T06:10:28.489Z,1012.24
2017-09-07T06:11:37.132Z,1012.27
2017-09-07T06:12:46.727Z,1012.24
2017-09-07T06:13:56.011Z,1012.25
2017-09-07T06:15:05.009Z,1012.28
2017-09-07T06:16:14.292Z,1012.28
2017-09-07T06:17:22.963Z,1012.32
2017-09-07T06:18:32.239Z,1012.31
2017-09-07T06:19:40.887Z,1012.34
2017-09-07T06:20:50.168Z,1012.31
2017-09-07T06:21:59.774Z,1012.33
2017-09-07T06:23:08.421Z,1012.34
2017-09-07T06:24:17.701Z,1012.32
2017-09-07T06:25:26.675Z,1012.35
2017-09-07T06:26:35.961Z,1012.34
2017-09-07T06:27:44.946Z,1012.35
2017-09-07T06:28:54.626Z,1012.33
2017-09-07T06:30:03.304Z,1012.34
2017-09-07T06:31:12.276Z,1012.34
2017-09-07T06:32:21.238Z,1012.33
2017-09-07T06:33:30.507Z,1012.32
2017-09-07T06:34:39.776Z,1012.32
2017-09-07T06:35:49.073Z,1012.33
2017-09-07T06:36:58.037Z,1012.36
2017-09-07T06:38:07.030Z,1012.34
2017-09-07T06:39:15.676Z,1012.37
2017-09-07T06:40:24.977Z,1012.41
2017-09-07T06:41:33.949Z,1012.39
2017-09-07T06:42:42.928Z,1012.38
2017-09-07T06:43:52.851Z,1012.38
2017-09-07T06:45:02.443Z,1012.37
2017-09-07T06:46:11.400Z,1012.39
2017-09-07T06:47:20.681Z,1012.37
2017-09-07T06:48:29.334Z,1012.36
2017-09-07T06:49:37.985Z,1012.34
2017-09-07T06:50:47.600Z,1012.37
2017-09-07T06:51:57.189Z,1012.35
2017-09-07T06:53:06.777Z,1012.39
2017-09-07T06:54:16.070Z,1012.38
2017-09-07T06:55:24.726Z,1012.42
2017-09-07T06:56:33.739Z,1012.41
2017-09-07T06:57:43.350Z,1012.43
2017-09-07T06:58:52.631Z,1012.46
2017-09-07T07:00:01.282Z,1012.43
2017-09-07T07:01:11.203Z,1012.41
2017-09-07T07:02:20.806Z,1012.43
2017-09-07T07:03:30.088Z,1012.45
2017-09-07T07:04:39.063Z,1012.45
2017-09-07T07:05:48.055Z,1012.44
2017-09-07T07:06:57.393Z,1012.44
2017-09-07T07:08:06.699Z,1012.44
2017-09-07T07:09:15.371Z,1012.47
2017-09-07T07:10:24.029Z,1012.39
2017-09-07T07:11:33.000Z,1012.41
2017-09-07T07:12:42.290Z,1012.38
2017-09-07T07:13:51.669Z,1012.4
2017-09-07T07:15:00.640Z,1012.38
2017-09-07T07:16:09.677Z,1012.36
2017-09-07T07:17:18.967Z,1012.43
2017-09-07T07:18:28.253Z,1012.41
2017-09-07T07:19:36.902Z,1012.46
2017-09-07T07:20:45.900Z,1012.39
2017-09-07T07:21:54.901Z,1012.38
2017-09-07T07:23:03.642Z,1012.38
2017-09-07T07:24:12.416Z,1012.38
2017-09-07T07:25:21.395Z,1012.41
2017-09-07T07:26:30.691Z,1012.39
2017-09-07T07:27:39.675Z,1012.32
2017-09-07T07:28:48.999Z,1012.35
2017-09-07T07:29:57.668Z,1012.35
2017-09-07T07:31:06.959Z,1012.37
2017-09-07T07:32:15.958Z,1012.38
2017-09-07T07:33:24.617Z,1012.42
2017-09-07T07:34:33.609Z,1012.41
2017-09-07T07:35:42.581Z,1012.42
2017-09-07T07:36:52.228Z,1012.4
2017-09-07T07:38:00.887Z,1012.42
2017-09-07T07:39:09.859Z,1012.46
2017-09-07T07:40:19.148Z,1012.48
2017-09-07T07:41:27.832Z,1012.5
2017-09-07T07:42:37.766Z,1012.54
2017-09-07T07:43:47.048Z,1012.51
2017-09-07T07:44:56.025Z,1012.5
2017-09-07T07:46:04.674Z,1012.48
2017-09-07T07:47:13.646Z,1012.48
2017-09-07T07:48:22.927Z,1012.53
2017-09-07T07:49:31.891Z,1012.53
2017-09-07T07:50:40.857Z,1012.54
2017-09-07T07:51:49.517Z,1012.52
2017-09-07T07:52:58.470Z,1012.49
2017-09-07T07:54:07.144Z,1012.49
2017-09-07T07:55:16.115Z,1012.54
2017-09-07T07:56:25.727Z,1012.52
2017-09-07T07:57:35.017Z,1012.49
2017-09-07T07:58:43.981Z,1012.53
2017-09-07T07:59:52.642Z,1012.5
2017-09-07T08:01:01.610Z,1012.5
2017-09-07T08:02:10.580Z,1012.48
2017-09-07T08:03:19.544Z,1012.49
2017-09-07T08:04:28.822Z,1012.54
2017-09-07T08:05:37.865Z,1012.48
2017-09-07T08:06:46.525Z,1012.51
2017-09-07T08:07:55.854Z,1012.56
2017-09-07T08:09:05.131Z,1012.55
2017-09-07T08:10:14.740Z,1012.6
2017-09-07T08:11:23.439Z,1012.58
2017-09-07T08:12:32.092Z,1012.58
2017-09-07T08:13:41.386Z,1012.56
2017-09-07T08:14:50.370Z,1012.57
2017-09-07T08:15:59.341Z,1012.59
2017-09-07T08:17:08.324Z,1012.6
2017-09-07T08:18:17.951Z,1012.63
2017-09-07T08:19:26.919Z,1012.67
2017-09-07T08:20:36.199Z,1012.64
2017-09-07T08:21:45.484Z,1012.67
2017-09-07T08:22:54.446Z,1012.67
2017-09-07T08:24:03.437Z,1012.68
2017-09-07T08:25:12.736Z,1012.68
2017-09-07T08:26:21.706Z,1012.66
2017-09-07T08:27:30.672Z,1012.66
2017-09-07T08:28:39.327Z,1012.64
2017-09-07T08:29:48.616Z,1012.66
2017-09-07T08:30:57.265Z,1012.62
2017-09-07T08:32:06.233Z,1012.6
2017-09-07T08:33:15.204Z,1012.6
2017-09-07T08:34:24.251Z,1012.58
2017-09-07T08:35:33.231Z,1012.59
2017-09-07T08:36:41.908Z,1012.59
2017-09-07T08:37:51.195Z,1012.57
2017-09-07T08:39:00.489Z,1012.56
2017-09-07T08:40:09.770Z,1012.52
2017-09-07T08:41:19.069Z,1012.52
2017-09-07T08:42:27.724Z,1012.53
2017-09-07T08:43:36.436Z,1012.54
2017-09-07T08:44:45.714Z,1012.49
2017-09-07T08:45:54.687Z,1012.51
2017-09-07T08:47:04.292Z,1012.48
2017-09-07T08:48:12.970Z,1012.53
2017-09-07T08:49:22.243Z,1012.47
2017-09-07T08:50:31.526Z,1012.49
2017-09-07T08:51:40.494Z,1012.48
2017-09-07T08:52:49.778Z,1012.5
2017-09-07T08:53:59.059Z,1012.49
2017-09-07T08:55:08.346Z,1012.5
2017-09-07T08:56:17.299Z,1012.49
2017-09-07T08:57:25.951Z,1012.52
2017-09-07T08:58:34.912Z,1012.5
2017-09-07T08:59:43.876Z,1012.47
2017-09-07T09:00:52.523Z,1012.48
2017-09-07T09:02:01.802Z,1012.47
2017-09-07T09:03:10.766Z,1012.47
2017-09-07T09:04:19.734Z,1012.5
2017-09-07T09:05:29.016Z,1012.49
2017-09-07T09:06:37.981Z,1012.47
2017-09-07T09:07:47.600Z,1012.45
2017-09-07T09:08:57.197Z,1012.46
2017-09-07T09:10:06.813Z,1012.46
2017-09-07T09:11:15.466Z,1012.46
2017-09-07T09:12:25.068Z,1012.46
2017-09-07T09:13:33.742Z,1012.44
2017-09-07T09:14:43.025Z,1012.44
2017-09-07T09:15:52.314Z,1012.43
2017-09-07T09:17:01.278Z,1012.39
2017-09-07T09:18:09.937Z,1012.37
2017-09-07T09:19:18.900Z,1012.36
2017-09-07T09:20:27.569Z,1012.36
2017-09-07T09:21:36.235Z,1012.34
2017-09-07T09:22:46.174Z,1012.34
2017-09-07T09:23:55.791Z,1012.33
2017-09-07T09:25:05.149Z,1012.31
2017-09-07T09:26:14.434Z,1012.27
2017-09-07T09:27:23.422Z,1012.26
2017-09-07T09:28:32.068Z,1012.27
2017-09-07T09:29:40.720Z,1012.26
2017-09-07T09:30:50.317Z,1012.25
2017-09-07T09:31:59.285Z,1012.22
2017-09-07T09:33:08.266Z,1012.25
2017-09-07T09:34:17.246Z,1012.17
2017-09-07T09:35:25.893Z,1012.17
2017-09-07T09:36:34.538Z,1012.15
2017-09-07T09:37:43.838Z,1012.22
2017-09-07T09:38:52.821Z,1012.19
2017-09-07T09:40:02.432Z,1012.17
2017-09-07T09:41:11.757Z,1012.13
2017-09-07T09:42:20.750Z,1012.08
2017-09-07T09:43:30.056Z,1012.1
2017-09-07T09:44:39.024Z,1012.11
2017-09-07T09:45:47.994Z,1012.1
2017-09-07T09:46:57.274Z,1012.11
2017-09-07T09:48:06.890Z,1012.12
2017-09-07T09:49:15.553Z,1012.09
2017-09-07T09:50:24.926Z,1012.09
2017-09-07T09:51:34.212Z,1012.09
2017-09-07T09:52:43.493Z,1012.12
2017-09-07T09:53:52.793Z,1012.13
2017-09-07T09:55:01.757Z,1012.08
2017-09-07T09:56:11.051Z,1012.11
2017-09-07T09:57:20.342Z,1012.13
2017-09-07T09:58:29.309Z,1012.1
2017-09-07T09:59:37.990Z,1012.15
2017-09-07T10:00:46.957Z,1012.16
2017-09-07T10:01:55.927Z,1012.12
2017-09-07T10:03:05.212Z,1012.14
2017-09-07T10:04:14.538Z,1012.16
2017-09-07T10:05:23.496Z,1012.13
2017-09-07T10:06:32.774Z,1012.16
2017-09-07T10:07:42.608Z,1012.15
2017-09-07T10:08:51.576Z,1012.11
2017-09-07T10:10:00.862Z,1012.07
2017-09-07T10:11:10.150Z,1012.01
2017-09-07T10:12:19.120Z,1012.06
2017-09-07T10:13:28.084Z,1012.08
2017-09-07T10:14:37.053Z,1012.06
2017-09-07T10:15:45.728Z,1012.03
2017-09-07T10:16:54.414Z,1012.06
2017-09-07T10:18:29.706Z,1012.02
2017-09-07T10:19:39.309Z,1012.02
2017-09-07T10:20:48.894Z,1011.96
2017-09-07T10:21:58.552Z,1011.93
2017-09-07T10:23:08.157Z,1011.93
2017-09-07T10:24:16.809Z,1011.88
2017-09-07T10:25:26.090Z,1011.88
2017-09-07T10:26:34.754Z,1011.85
2017-09-07T10:27:43.737Z,1011.88
2017-09-07T10:28:52.705Z,1011.86
2017-09-07T10:30:01.990Z,1011.82
2017-09-07T10:31:11.283Z,1011.76
2017-09-07T10:32:20.578Z,1011.76
2017-09-07T10:33:29.538Z,1011.75
2017-09-07T10:34:38.514Z,1011.7
2017-09-07T10:35:47.479Z,1011.66
2017-09-07T10:36:56.765Z,1011.63
2017-09-07T10:38:05.415Z,1011.62
2017-09-07T10:39:15.044Z,1011.65
2017-09-07T10:40:24.320Z,1011.66
2017-09-07T10:41:33.308Z,1011.67
2017-09-07T10:42:42.592Z,1011.63
2017-09-07T10:43:51.563Z,1011.58
2017-09-07T10:45:01.499Z,1011.57
2017-09-07T10:46:11.110Z,1011.58
2017-09-07T10:47:20.404Z,1011.55
2017-09-07T10:48:30.010Z,1011.49
2017-09-07T10:49:38.978Z,1011.52
2017-09-07T10:50:48.027Z,1011.46
2017-09-07T10:51:56.683Z,1011.43
2017-09-07T10:53:06.283Z,1011.41
2017-09-07T10:54:15.890Z,1011.35
2017-09-07T10:55:25.170Z,1011.36
2017-09-07T10:56:34.457Z,1011.34
2017-09-07T10:57:43.452Z,1011.34
2017-09-07T10:58:52.424Z,1011.33
2017-09-07T11:00:01.710Z,1011.33
2017-09-07T11:01:10.719Z,1011.3
2017-09-07T11:02:20.358Z,1011.29
2017-09-07T11:03:29.343Z,1011.27
2017-09-07T11:04:39.267Z,1011.3
2017-09-07T11:05:48.230Z,1011.25
2017-09-07T11:06:57.834Z,1011.25
2017-09-07T11:08:07.125Z,1011.23
2017-09-07T11:09:16.118Z,1011.23
2017-09-07T11:10:25.421Z,1011.22
2017-09-07T11:11:34.400Z,1011.21
2017-09-07T11:12:43.684Z,1011.25
2017-09-07T11:13:52.335Z,1011.18
2017-09-07T11:15:00.990Z,1011.18
2017-09-07T11:16:10.269Z,1011.18
2017-09-07T11:17:19.229Z,1011.13
2017-09-07T11:18:28.185Z,1011.14
2017-09-07T11:19:37.186Z,1011.17
2017-09-07T11:20:46.481Z,1011.13
2017-09-07T11:21:55.778Z,1011.15
2017-09-07T11:23:05.061Z,1011.15
2017-09-07T11:24:14.359Z,1011.16
2017-09-07T11:25:24.283Z,1011.2
2017-09-07T11:26:33.564Z,1011.18
2017-09-07T11:27:43.480Z,1011.18
2017-09-07T11:28:52.456Z,1011.2
2017-09-07T11:30:01.109Z,1011.17
2017-09-07T11:31:10.388Z,1011.21
2017-09-07T11:32:19.676Z,1011.15
2017-09-07T11:33:28.965Z,1011.15
2017-09-07T11:34:37.943Z,1011.16
2017-09-07T11:35:46.912Z,1011.18
2017-09-07T11:36:55.882Z,1011.17
2017-09-07T11:38:04.856Z,1011.18
2017-09-07T11:39:13.825Z,1011.21
2017-09-07T11:40:23.114Z,1011.22
2017-09-07T11:41:32.106Z,1011.24
2017-09-07T11:42:40.756Z,1011.25
2017-09-07T11:43:50.375Z,1011.24
2017-09-07T11:44:59.986Z,1011.26
2017-09-07T11:46:09.275Z,1011.25
2017-09-07T11:47:18.249Z,1011.21
2017-09-07T11:48:27.836Z,1011.23
2017-09-07T11:49:37.132Z,1011.18
2017-09-07T11:50:46.127Z,1011.19
2017-09-07T11:51:55.137Z,1011.18
2017-09-07T11:53:04.099Z,1011.15
2017-09-07T11:54:13.067Z,1011.12
2017-09-07T11:55:21.719Z,1011.1
2017-09-07T11:56:30.689Z,1011.11
2017-09-07T11:57:40.290Z,1011.13
2017-09-07T11:58:49.567Z,1011.13
2017-09-07T11:59:58.532Z,1011.07
2017-09-07T12:01:07.811Z,1011.09
2017-09-07T12:02:17.093Z,1011.1
2017-09-07T12:03:26.993Z,1011.03
2017-09-07T12:04:36.293Z,1011.03
2017-09-07T12:05:45.601Z,1010.99
2017-09-07T12:06:54.891Z,1010.96
2017-09-07T12:08:03.539Z,1010.98
2017-09-07T12:09:12.518Z,1010.95
2017-09-07T12:10:21.801Z,1010.94
2017-09-07T12:11:30.773Z,1010.92
2017-09-07T12:12:39.426Z,1010.84
2017-09-07T12:13:48.715Z,1010.86
2017-09-07T12:14:58.002Z,1010.77
2017-09-07T12:16:06.969Z,1010.8
2017-09-07T12:17:16.254Z,1010.84
2017-09-07T12:18:25.560Z,1010.87
2017-09-07T12:19:34.539Z,1010.84
2017-09-07T12:20:43.199Z,1010.85
2017-09-07T12:21:52.177Z,1010.86
2017-09-07T12:23:02.089Z,1010.88
2017-09-07T12:24:10.757Z,1010.86
2017-09-07T12:25:19.734Z,1010.83
2017-09-07T12:26:29.025Z,1010.88
2017-09-07T12:27:38.001Z,1010.87
2017-09-07T12:28:46.662Z,1010.87
2017-09-07T12:29:55.322Z,1010.85
2017-09-07T12:31:04.297Z,1010.85
2017-09-07T12:32:12.964Z,1010.85
2017-09-07T12:33:21.672Z,1010.89
2017-09-07T12:34:31.140Z,1010.83
2017-09-07T12:35:41.068Z,1010.81
2017-09-07T12:36:50.045Z,1010.85
2017-09-07T12:37:59.642Z,1010.81
2017-09-07T12:39:08.610Z,1010.81
2017-09-07T12:40:17.572Z,1010.8
2017-09-07T12:41:26.549Z,1010.81
2017-09-07T12:42:35.510Z,1010.75
2017-09-07T12:43:44.482Z,1010.78
2017-09-07T12:44:54.088Z,1010.76
2017-09-07T12:46:03.055Z,1010.73
2017-09-07T12:47:11.705Z,1010.73
2017-09-07T12:48:20.361Z,1010.74
2017-09-07T12:49:29.013Z,1010.72
2017-09-07T12:50:38.983Z,1010.65
2017-09-07T12:51:47.642Z,1010.63
2017-09-07T12:52:56.624Z,1010.61
2017-09-07T12:54:06.236Z,1010.63
2017-09-07T12:55:15.557Z,1010.61
2017-09-07T12:56:24.530Z,1010.62
2017-09-07T12:57:33.809Z,1010.65
2017-09-07T12:58:44.101Z,1010.62
2017-09-07T12:59:53.383Z,1010.6
2017-09-07T13:01:02.040Z,1010.63
2017-09-07T13:02:11.033Z,1010.65
2017-09-07T13:03:20.327Z,1010.63
2017-09-07T13:04:29.288Z,1010.6
2017-09-07T13:05:38.259Z,1010.57
2017-09-07T13:06:47.233Z,1010.56
2017-09-07T13:07:56.196Z,1010.53
2017-09-07T13:09:05.479Z,1010.53
2017-09-07T13:10:14.457Z,1010.48
2017-09-07T13:11:23.481Z,1010.46
2017-09-07T13:12:32.767Z,1010.44
2017-09-07T13:13:41.740Z,1010.42
2017-09-07T13:14:50.713Z,1010.41
2017-09-07T13:16:00.318Z,1010.46
2017-09-07T13:17:09.613Z,1010.42
2017-09-07T13:18:18.573Z,1010.4
2017-09-07T13:19:27.552Z,1010.4
2017-09-07T13:20:36.527Z,1010.38
2017-09-07T13:21:45.824Z,1010.4
2017-09-07T13:22:55.425Z,1010.41
2017-09-07T13:24:04.404Z,1010.38
2017-09-07T13:25:13.384Z,1010.38
2017-09-07T13:26:22.363Z,1010.35
2017-09-07T13:27:31.663Z,1010.36
2017-09-07T13:28:40.650Z,1010.33
2017-09-07T13:29:49.631Z,1010.3
2017-09-07T13:30:58.612Z,1010.35
2017-09-07T13:32:08.527Z,1010.31
2017-09-07T13:33:17.835Z,1010.31
2017-09-07T13:34:26.832Z,1010.33
2017-09-07T13:35:36.124Z,1010.3
2017-09-07T13:36:45.427Z,1010.33
2017-09-07T13:37:54.411Z,1010.32
2017-09-07T13:39:03.385Z,1010.3
2017-09-07T13:40:12.364Z,1010.24
2017-09-07T13:41:21.016Z,1010.23
2017-09-07T13:42:30.298Z,1010.21
2017-09-07T13:43:39.580Z,1010.2
2017-09-07T13:44:48.232Z,1010.22
2017-09-07T13:45:57.530Z,1010.22
2017-09-07T13:47:06.807Z,1010.22
2017-09-07T13:48:15.771Z,1010.24
2017-09-07T13:49:25.074Z,1010.18
2017-09-07T13:50:34.351Z,1010.21
2017-09-07T13:51:43.038Z,1010.2
2017-09-07T13:52:52.318Z,1010.19
2017-09-07T13:54:00.969Z,1010.21
2017-09-07T13:55:09.940Z,1010.22
2017-09-07T13:56:18.904Z,1010.18
2017-09-07T13:57:27.569Z,1010.19
2017-09-07T13:58:36.217Z,1010.22